createdAt,value
2023-04-04T00:00:41.632Z,2.53
2023-04-04T00:03:10.270Z,2.13
2023-04-04T00:05:38.550Z,2.15
2023-04-04T00:08:07.305Z,1.90
2023-04-04T00:10:35.632Z,2.05
2023-04-04T00:13:05.706Z,1.85
2023-04-04T00:15:34.662Z,2.00
2023-04-04T00:18:04.948Z,2.17
2023-04-04T00:20:33.130Z,1.90
2023-04-04T00:23:01.254Z,2.28
2023-04-04T00:25:29.446Z,1.98
2023-04-04T00:28:00.706Z,2.25
2023-04-04T00:30:29.596Z,2.08
2023-04-04T00:32:58.207Z,2.17
2023-04-04T00:35:28.063Z,2.40
2023-04-04T00:37:56.363Z,2.03
2023-04-04T00:40:24.616Z,1.70
2023-04-04T00:42:53.100Z,1.92
2023-04-04T00:45:21.595Z,1.85
2023-04-04T00:47:51.160Z,2.05
2023-04-04T00:50:19.420Z,2.10
2023-04-04T00:52:48.929Z,1.80
2023-04-04T00:55:17.566Z,2.30
2023-04-04T00:57:45.703Z,2.15
2023-04-04T01:00:16.510Z,1.83
2023-04-04T01:02:44.829Z,1.92
2023-04-04T01:05:13.560Z,1.88
2023-04-04T01:07:42.976Z,2.13
2023-04-04T01:10:13.409Z,2.00
2023-04-04T01:12:43.358Z,1.83
2023-04-04T01:15:12.459Z,1.95
2023-04-04T01:17:41.996Z,2.58
2023-04-04T01:20:14.491Z,2.50
2023-04-04T01:22:44.563Z,2.50
2023-04-04T01:25:15.629Z,2.20
2023-04-04T01:27:45.619Z,1.92
2023-04-04T01:30:16.123Z,2.22
2023-04-04T01:32:46.999Z,2.05
2023-04-04T01:35:25.766Z,1.90
2023-04-04T01:38:09.477Z,2.00
2023-04-04T01:40:39.557Z,1.73
2023-04-04T01:43:10.009Z,1.88
2023-04-04T01:45:38.352Z,1.77
2023-04-04T01:48:06.790Z,1.83
2023-04-04T01:50:35.016Z,1.63
2023-04-04T01:53:03.174Z,1.70
2023-04-04T01:55:31.286Z,1.35
2023-04-04T01:57:59.430Z,2.22
2023-04-04T02:00:28.901Z,1.85
2023-04-04T02:02:57.313Z,1.92
2023-04-04T02:05:25.782Z,1.77
2023-04-04T02:07:53.941Z,2.17
2023-04-04T02:10:22.098Z,1.77
2023-04-04T02:12:50.217Z,1.90
2023-04-04T02:15:19.427Z,2.17
2023-04-04T02:17:50.613Z,2.08
2023-04-04T02:20:19.552Z,2.00
2023-04-04T02:22:57.675Z,2.03
2023-04-04T02:25:26.491Z,2.10
2023-04-04T02:27:54.666Z,2.13
2023-04-04T02:30:22.814Z,2.03
2023-04-04T02:32:52.410Z,2.28
2023-04-04T02:35:20.717Z,2.35
2023-04-04T02:37:49.021Z,2.25
2023-04-04T02:40:17.196Z,1.83
2023-04-04T02:42:45.602Z,1.95
2023-04-04T02:45:14.883Z,1.60
2023-04-04T02:47:43.605Z,1.90
2023-04-04T02:50:13.349Z,1.88
2023-04-04T02:52:41.486Z,2.30
2023-04-04T02:55:10.597Z,1.70
2023-04-04T02:57:38.955Z,1.90
2023-04-04T03:00:08.504Z,1.73
2023-04-04T03:02:36.870Z,2.03
2023-04-04T03:05:05.365Z,1.98
2023-04-04T03:07:34.916Z,1.80
2023-04-04T03:10:03.076Z,1.73
2023-04-04T03:12:31.377Z,1.80
2023-04-04T03:14:59.511Z,2.10
2023-04-04T03:17:27.690Z,2.33
2023-04-04T03:19:55.842Z,1.92
2023-04-04T03:22:23.998Z,2.05
2023-04-04T03:24:53.504Z,1.92
2023-04-04T03:27:22.188Z,1.80
2023-04-04T03:29:50.317Z,2.10
2023-04-04T03:32:19.283Z,1.80
2023-04-04T03:34:47.463Z,1.70
2023-04-04T03:37:15.605Z,2.10
2023-04-04T03:39:43.710Z,2.10
2023-04-04T03:42:13.577Z,1.73
2023-04-04T03:44:41.944Z,1.90
2023-04-04T03:47:10.078Z,2.20
2023-04-04T03:49:38.241Z,1.85
2023-04-04T03:52:06.790Z,1.67
2023-04-04T03:54:35.120Z,2.00
2023-04-04T03:57:03.798Z,1.80
2023-04-04T03:59:33.330Z,1.60
2023-04-04T04:02:01.460Z,1.65
2023-04-04T04:04:29.659Z,1.48
2023-04-04T04:06:58.561Z,1.80
2023-04-04T04:09:27.092Z,2.03
2023-04-04T04:11:55.268Z,1.98
2023-04-04T04:14:23.509Z,2.03
2023-04-04T04:16:53.038Z,2.10
2023-04-04T04:19:21.610Z,1.92
2023-04-04T04:21:49.762Z,1.95
2023-04-04T04:24:17.996Z,1.90
2023-04-04T04:26:46.117Z,2.28
2023-04-04T04:29:14.224Z,1.70
2023-04-04T04:31:42.323Z,1.83
2023-04-04T04:34:11.898Z,1.90
2023-04-04T04:36:40.063Z,2.28
2023-04-04T04:39:08.253Z,1.73
2023-04-04T04:41:36.791Z,1.73
2023-04-04T04:44:04.926Z,1.95
2023-04-04T04:46:33.223Z,1.75
2023-04-04T04:49:01.428Z,2.65
2023-04-04T04:51:31.015Z,1.67
2023-04-04T04:53:59.298Z,2.20
2023-04-04T04:56:27.502Z,1.85
2023-04-04T04:58:55.667Z,1.92
2023-04-04T05:01:23.979Z,2.13
2023-04-04T05:03:53.372Z,1.60
2023-04-04T05:06:22.078Z,1.85
2023-04-04T05:08:51.838Z,2.10
2023-04-04T05:11:20.005Z,2.08
2023-04-04T05:13:48.521Z,2.38
2023-04-04T05:16:16.686Z,2.25
2023-04-04T05:18:44.836Z,2.25
2023-04-04T05:21:13.370Z,2.00
2023-04-04T05:23:41.883Z,1.75
2023-04-04T05:26:11.364Z,2.50
2023-04-04T05:28:40.646Z,2.15
2023-04-04T05:31:08.841Z,2.33
2023-04-04T05:33:36.977Z,2.60
2023-04-04T05:36:05.475Z,2.40
2023-04-04T05:38:33.635Z,2.65
2023-04-04T05:41:01.737Z,2.83
2023-04-04T05:43:31.267Z,2.42
2023-04-04T05:45:59.446Z,2.65
2023-04-04T05:48:27.593Z,3.25
2023-04-04T05:50:55.719Z,3.03
2023-04-04T05:53:23.947Z,2.50
2023-04-04T05:55:53.682Z,2.70
2023-04-04T05:58:22.353Z,2.65
2023-04-04T06:00:51.752Z,2.35
2023-04-04T06:03:21.991Z,2.35
2023-04-04T06:05:53.495Z,2.35
2023-04-04T06:08:21.836Z,2.33
2023-04-04T06:10:50.001Z,2.53
2023-04-04T06:13:18.147Z,2.83
2023-04-04T06:15:46.389Z,3.30
2023-04-04T06:18:17.441Z,2.80
2023-04-04T06:20:45.718Z,3.47
2023-04-04T06:23:13.916Z,3.13
2023-04-04T06:25:42.047Z,2.90
2023-04-04T06:28:11.138Z,3.38
2023-04-04T06:30:39.706Z,3.00
2023-04-04T06:33:08.132Z,3.20
2023-04-04T06:35:37.662Z,3.13
2023-04-04T06:38:05.983Z,3.45
2023-04-04T06:40:34.108Z,3.03
2023-04-04T06:43:02.250Z,2.90
2023-04-04T06:45:33.447Z,4.10
2023-04-04T06:48:01.734Z,3.50
2023-04-04T06:50:32.364Z,4.13
2023-04-04T06:53:02.150Z,4.10
2023-04-04T06:55:30.344Z,3.97
2023-04-04T06:57:58.480Z,3.70
2023-04-04T07:00:26.711Z,3.67
2023-04-04T07:03:00.011Z,3.97
2023-04-04T07:05:28.533Z,3.78
2023-04-04T07:07:57.207Z,3.45
2023-04-04T07:10:27.420Z,4.28
2023-04-04T07:12:55.582Z,3.38
2023-04-04T07:15:23.607Z,4.00
2023-04-04T07:17:51.875Z,3.90
2023-04-04T07:20:20.129Z,3.92
2023-04-04T07:22:49.577Z,3.90
2023-04-04T07:25:17.815Z,3.70
2023-04-04T07:27:47.688Z,3.95
2023-04-04T07:30:16.715Z,4.32
2023-04-04T07:32:45.231Z,4.10
2023-04-04T07:35:13.863Z,3.80
2023-04-04T07:37:41.959Z,4.07
2023-04-04T07:40:12.148Z,4.20
2023-04-04T07:42:46.776Z,3.70
2023-04-04T07:45:15.342Z,3.63
2023-04-04T07:47:44.907Z,3.55
2023-04-04T07:50:13.234Z,3.15
2023-04-04T07:52:41.812Z,3.30
2023-04-04T07:55:11.479Z,3.20
2023-04-04T07:57:40.112Z,2.80
2023-04-04T08:00:11.011Z,2.83
2023-04-04T08:02:39.472Z,2.72
2023-04-04T08:05:09.108Z,3.15
2023-04-04T08:07:37.473Z,3.17
2023-04-04T08:10:06.302Z,2.88
2023-04-04T08:12:34.474Z,2.67
2023-04-04T08:15:03.122Z,2.97
2023-04-04T08:17:32.613Z,2.70
2023-04-04T08:20:00.736Z,2.20
2023-04-04T08:22:28.886Z,2.75
2023-04-04T08:24:56.990Z,2.40
2023-04-04T08:27:25.170Z,2.70
2023-04-04T08:29:53.320Z,2.38
2023-04-04T08:32:22.344Z,2.00
2023-04-04T08:34:52.246Z,2.00
2023-04-04T08:37:20.435Z,2.10
2023-04-04T08:39:48.544Z,2.58
2023-04-04T08:42:20.650Z,2.08
2023-04-04T08:44:52.165Z,2.20
2023-04-04T08:47:22.782Z,2.45
2023-04-04T08:49:54.243Z,2.40
2023-04-04T08:52:25.094Z,2.40
2023-04-04T08:54:53.696Z,1.98
2023-04-04T08:57:21.937Z,2.10
2023-04-04T08:59:50.211Z,2.67
2023-04-04T09:02:25.336Z,2.10
2023-04-04T09:05:05.519Z,2.22
2023-04-04T09:07:38.623Z,1.73
2023-04-04T09:10:10.690Z,2.22
2023-04-04T09:12:41.149Z,2.42
2023-04-04T09:15:10.805Z,1.73
2023-04-04T09:17:39.010Z,1.70
2023-04-04T09:20:42.292Z,1.63
2023-04-04T09:23:12.083Z,2.00
2023-04-04T09:25:56.233Z,2.28
2023-04-04T09:28:31.315Z,1.95
2023-04-04T09:31:01.961Z,2.13
2023-04-04T09:33:30.149Z,1.85
2023-04-04T09:36:02.950Z,1.60
2023-04-04T09:38:32.384Z,1.98
2023-04-04T09:41:00.857Z,1.92
2023-04-04T09:43:32.326Z,2.42
2023-04-04T09:46:02.356Z,2.13
2023-04-04T09:48:33.426Z,1.88
2023-04-04T09:51:06.775Z,2.58
2023-04-04T09:53:37.356Z,2.33
2023-04-04T09:56:07.050Z,2.38
2023-04-04T09:58:36.651Z,2.67
2023-04-04T10:01:09.683Z,2.25
2023-04-04T10:03:39.060Z,2.38
2023-04-04T10:06:10.545Z,1.63
2023-04-04T10:08:41.401Z,2.50
2023-04-04T10:11:12.256Z,1.92
2023-04-04T10:13:44.290Z,1.90
2023-04-04T10:16:12.672Z,2.20
2023-04-04T10:18:41.570Z,2.20
2023-04-04T10:21:15.653Z,2.15
2023-04-04T10:23:47.919Z,2.30
2023-04-04T10:26:16.361Z,2.35
2023-04-04T10:28:45.573Z,2.20
2023-04-04T10:31:21.704Z,1.95
2023-04-04T10:34:01.872Z,2.08
2023-04-04T10:36:37.623Z,1.55
2023-04-04T10:39:13.797Z,2.05
2023-04-04T10:41:42.531Z,2.38
2023-04-04T10:44:19.922Z,1.67
2023-04-04T10:46:51.301Z,2.17
2023-04-04T10:49:21.462Z,2.00
2023-04-04T10:51:56.442Z,2.40
2023-04-04T10:54:27.659Z,2.33
2023-04-04T10:57:00.806Z,1.70
2023-04-04T10:59:29.412Z,2.42
2023-04-04T11:01:58.855Z,2.50
2023-04-04T11:04:35.098Z,2.17
2023-04-04T11:07:13.377Z,2.38
2023-04-04T11:09:51.884Z,1.92
2023-04-04T11:12:24.141Z,2.10
2023-04-04T11:15:12.701Z,2.25
2023-04-04T11:17:57.412Z,2.00
2023-04-04T11:20:34.610Z,2.85
2023-04-04T11:23:09.981Z,2.28
2023-04-04T11:28:08.980Z,2.00
2023-04-04T11:30:44.813Z,1.90
2023-04-04T11:33:15.350Z,2.00
2023-04-04T11:35:51.151Z,2.38
2023-04-04T11:38:21.945Z,2.35
2023-04-04T11:40:57.053Z,2.65
2023-04-04T11:43:26.945Z,2.38
2023-04-04T11:45:56.590Z,2.15
2023-04-04T11:48:25.376Z,2.13
2023-04-04T11:50:54.748Z,2.13
2023-04-04T11:53:24.163Z,2.20
2023-04-04T11:55:53.077Z,2.22
2023-04-04T11:58:21.225Z,2.22
2023-04-04T12:00:50.650Z,2.55
2023-04-04T12:03:19.102Z,2.10
2023-04-04T12:05:48.643Z,2.03
2023-04-04T12:08:18.088Z,2.00
2023-04-04T12:10:47.634Z,2.10
2023-04-04T12:13:16.395Z,2.55
2023-04-04T12:15:45.172Z,2.20
2023-04-04T12:18:22.724Z,2.50
2023-04-04T12:20:52.898Z,2.22
2023-04-04T12:23:21.771Z,2.17
2023-04-04T12:25:54.922Z,2.13
2023-04-04T12:28:24.034Z,2.33
2023-04-04T12:30:53.222Z,2.15
2023-04-04T12:33:22.245Z,2.45
2023-04-04T12:35:54.860Z,2.08
2023-04-04T12:38:23.540Z,2.22
2023-04-04T12:40:53.740Z,2.38
2023-04-04T12:43:22.059Z,2.30
2023-04-04T12:45:52.678Z,2.35
2023-04-04T12:48:23.084Z,2.30
2023-04-04T12:50:53.205Z,2.58
2023-04-04T12:53:28.558Z,2.35
2023-04-04T12:56:03.671Z,1.88
2023-04-04T12:58:34.264Z,2.50
2023-04-04T13:01:04.898Z,2.53
2023-04-04T13:03:35.205Z,2.78
2023-04-04T13:06:03.855Z,2.65
2023-04-04T13:08:32.526Z,2.20
2023-04-04T13:11:04.779Z,2.60
2023-04-04T13:13:35.345Z,2.45
2023-04-04T13:16:04.507Z,2.30
2023-04-04T13:18:38.372Z,2.80
2023-04-04T13:21:08.553Z,2.50
2023-04-04T13:23:39.540Z,2.17
2023-04-04T13:26:10.846Z,2.13
2023-04-04T13:28:39.133Z,2.90
2023-04-04T13:31:08.949Z,2.78
2023-04-04T13:33:38.961Z,2.47
2023-04-04T13:36:07.727Z,2.40
2023-04-04T13:38:35.845Z,2.25
2023-04-04T13:41:04.010Z,1.85
2023-04-04T13:43:33.553Z,2.25
2023-04-04T13:46:01.809Z,2.60
2023-04-04T13:48:29.964Z,2.35
2023-04-04T13:50:58.187Z,2.72
2023-04-04T13:53:26.346Z,2.53
2023-04-04T13:56:13.859Z,2.00
2023-04-04T13:58:44.233Z,2.47
2023-04-04T14:01:12.559Z,2.67
2023-04-04T14:03:41.020Z,2.60
2023-04-04T14:06:11.119Z,2.90
2023-04-04T14:08:40.108Z,2.15
2023-04-04T14:11:08.518Z,2.45
2023-04-04T14:13:37.342Z,2.25
2023-04-04T14:16:09.268Z,2.20
2023-04-04T14:18:37.547Z,2.63
2023-04-04T14:21:07.246Z,2.38
2023-04-04T14:23:35.416Z,2.53
2023-04-04T14:26:04.456Z,1.70
2023-04-04T14:28:32.792Z,2.30
2023-04-04T14:31:01.612Z,2.33
2023-04-04T14:33:31.341Z,2.30
2023-04-04T14:35:59.441Z,2.30
2023-04-04T14:38:27.567Z,2.55
2023-04-04T14:40:55.709Z,2.58
2023-04-04T14:43:23.897Z,1.98
2023-04-04T14:45:52.442Z,2.38
2023-04-04T14:48:20.561Z,2.90
2023-04-04T14:50:50.125Z,2.50
2023-04-04T14:53:18.807Z,2.90
2023-04-04T14:55:46.916Z,2.83
2023-04-04T14:58:15.072Z,2.30
2023-04-04T15:00:43.277Z,2.13
2023-04-04T15:03:11.594Z,2.40
2023-04-04T15:05:40.073Z,2.35
2023-04-04T15:08:09.832Z,2.10
2023-04-04T15:10:38.007Z,2.60
2023-04-04T15:13:06.166Z,2.40
2023-04-04T15:15:34.268Z,2.88
2023-04-04T15:18:03.465Z,2.55
2023-04-04T15:20:31.654Z,2.40
2023-04-04T15:22:59.769Z,2.15
2023-04-04T15:25:29.860Z,2.35
2023-04-04T15:27:57.974Z,1.98
2023-04-04T15:30:27.099Z,2.33
2023-04-04T15:32:56.260Z,2.10
2023-04-04T15:35:25.069Z,2.15
2023-04-04T15:37:53.203Z,2.45
2023-04-04T15:40:22.690Z,2.30
2023-04-04T15:42:52.491Z,2.50
2023-04-04T15:45:20.696Z,2.15
2023-04-04T15:47:48.971Z,2.50
2023-04-04T15:50:17.146Z,2.05
2023-04-04T15:52:45.522Z,1.63
2023-04-04T15:55:17.086Z,2.05
2023-04-04T15:57:45.546Z,2.00
2023-04-04T16:00:17.018Z,1.67
2023-04-04T16:02:45.387Z,2.50
2023-04-04T16:05:13.673Z,2.33
2023-04-04T16:07:41.777Z,2.22
2023-04-04T16:10:11.296Z,1.92
2023-04-04T16:12:39.478Z,2.40
2023-04-04T16:15:09.468Z,2.55
2023-04-04T16:17:38.999Z,2.13
2023-04-04T16:20:08.210Z,2.35
2023-04-04T16:22:36.362Z,2.13
2023-04-04T16:25:04.764Z,2.45
2023-04-04T16:27:34.130Z,2.30
2023-04-04T16:30:02.524Z,2.00
2023-04-04T16:32:31.753Z,2.30
2023-04-04T16:35:01.396Z,2.20
2023-04-04T16:37:29.523Z,2.40
2023-04-04T16:40:00.272Z,2.30
2023-04-04T16:42:28.374Z,2.08
2023-04-04T16:44:56.597Z,2.80
2023-04-04T16:47:26.123Z,2.13
2023-04-04T16:49:55.091Z,2.28
2023-04-04T16:52:24.558Z,2.58
2023-04-04T16:54:54.404Z,2.47
2023-04-04T16:57:22.564Z,2.60
2023-04-04T16:59:50.698Z,2.30
2023-04-04T17:02:18.933Z,2.17
2023-04-04T17:04:47.103Z,2.20
2023-04-04T17:07:15.338Z,2.33
2023-04-04T17:09:47.099Z,2.22
2023-04-04T17:12:16.410Z,2.20
2023-04-04T17:14:45.259Z,2.30
2023-04-04T17:17:13.403Z,2.08
2023-04-04T17:19:41.473Z,2.25
2023-04-04T17:22:09.588Z,2.55
2023-04-04T17:24:37.680Z,2.08
2023-04-04T17:27:07.722Z,2.35
2023-04-04T17:29:36.150Z,2.10
2023-04-04T17:32:05.318Z,2.53
2023-04-04T17:34:33.473Z,2.33
2023-04-04T17:37:03.358Z,2.40
2023-04-04T17:39:31.500Z,2.78
2023-04-04T17:41:59.586Z,2.67
2023-04-04T17:44:29.135Z,2.33
2023-04-04T17:46:57.272Z,2.50
2023-04-04T17:49:27.179Z,2.60
2023-04-04T17:51:55.326Z,2.55
2023-04-04T17:54:25.925Z,2.85
2023-04-04T17:56:54.229Z,2.60
2023-04-04T17:59:22.379Z,2.72
2023-04-04T18:01:52.129Z,2.60
2023-04-04T18:04:22.230Z,3.20
2023-04-04T18:06:50.418Z,2.70
2023-04-04T18:09:18.666Z,2.58
2023-04-04T18:11:46.913Z,2.90
2023-04-04T18:14:15.465Z,3.08
2023-04-04T18:16:43.744Z,3.00
2023-04-04T18:19:13.339Z,3.08
2023-04-04T18:21:41.626Z,3.10
2023-04-04T18:24:11.801Z,3.63
2023-04-04T18:26:40.075Z,3.40
2023-04-04T18:29:08.353Z,3.10
2023-04-04T18:31:36.572Z,3.92
2023-04-04T18:34:04.714Z,3.88
2023-04-04T18:36:36.353Z,3.63
2023-04-04T18:39:04.772Z,4.10
2023-04-04T18:41:33.737Z,3.78
2023-04-04T18:44:02.027Z,3.58
2023-04-04T18:46:30.278Z,3.80
2023-04-04T18:48:58.441Z,4.10
2023-04-04T18:51:26.722Z,3.95
2023-04-04T18:53:56.317Z,3.30
2023-04-04T18:56:24.493Z,3.50
2023-04-04T18:58:52.789Z,3.78
2023-04-04T19:01:20.979Z,3.70
2023-04-04T19:03:51.496Z,4.78
2023-04-04T19:06:19.710Z,4.60
2023-04-04T19:08:48.739Z,4.40
2023-04-04T19:11:18.222Z,4.10
2023-04-04T19:13:46.306Z,3.72
2023-04-04T19:16:14.528Z,3.85
2023-04-04T19:18:43.741Z,4.40
2023-04-04T19:21:11.872Z,4.60
2023-04-04T19:23:40.091Z,4.32
2023-04-04T19:26:08.219Z,4.90
2023-04-04T19:28:37.652Z,4.00
2023-04-04T19:31:10.784Z,3.55
2023-04-04T19:33:39.679Z,3.75
2023-04-04T19:36:11.090Z,3.67
2023-04-04T19:38:42.512Z,3.72
2023-04-04T19:41:14.203Z,4.00
2023-04-04T19:43:45.626Z,3.58
2023-04-04T19:46:15.341Z,4.43
2023-04-04T19:48:46.123Z,4.90
2023-04-04T19:51:38.111Z,4.68
2023-04-04T19:54:09.241Z,4.38
2023-04-04T19:56:37.408Z,4.75
2023-04-04T19:59:10.417Z,4.43
2023-04-04T20:01:44.760Z,4.20
2023-04-04T20:04:19.004Z,5.03
2023-04-04T20:06:49.155Z,4.70
2023-04-04T20:09:34.631Z,4.93
2023-04-04T20:12:02.894Z,4.55
2023-04-04T20:14:32.417Z,5.15
2023-04-04T20:17:00.537Z,4.13
2023-04-04T20:19:30.840Z,4.72
2023-04-04T20:21:59.114Z,4.15
2023-04-04T20:24:28.484Z,5.30
2023-04-04T20:26:59.210Z,4.70
2023-04-04T20:29:28.859Z,4.60
2023-04-04T20:32:00.218Z,6.28
2023-04-04T20:34:45.786Z,4.93
2023-04-04T20:37:16.195Z,4.95
2023-04-04T20:39:48.971Z,4.90
2023-04-04T20:42:32.415Z,4.07
2023-04-04T20:45:07.527Z,4.20
2023-04-04T20:47:43.457Z,4.75
2023-04-04T20:50:53.020Z,4.65
2023-04-04T20:53:21.221Z,4.82
2023-04-04T20:55:50.645Z,4.68
2023-04-04T20:58:29.384Z,5.10
2023-04-04T21:00:58.366Z,4.57
2023-04-04T21:03:32.760Z,5.00
2023-04-04T21:06:12.926Z,4.78
2023-04-04T21:08:45.514Z,4.75
2023-04-04T21:11:14.435Z,4.70
2023-04-04T21:13:43.622Z,4.75
2023-04-04T21:16:13.267Z,5.07
2023-04-04T21:18:43.276Z,4.60
2023-04-04T21:21:18.614Z,4.43
2023-04-04T21:26:29.838Z,5.07
2023-04-04T21:28:59.261Z,4.90
2023-04-04T21:31:30.854Z,4.85
2023-04-04T21:34:08.007Z,4.85
2023-04-04T21:36:36.228Z,4.53
2023-04-04T21:39:07.922Z,5.18
2023-04-04T21:41:36.592Z,4.70
2023-04-04T21:44:06.663Z,4.88
2023-04-04T21:46:36.994Z,4.88
2023-04-04T21:49:08.011Z,5.43
2023-04-04T21:51:36.711Z,5.38
2023-04-04T21:54:05.436Z,5.72
2023-04-04T21:56:33.565Z,5.85
2023-04-04T21:59:03.071Z,5.30
2023-04-04T22:01:31.560Z,5.65
2023-04-04T22:04:00.210Z,5.57
2023-04-04T22:06:31.153Z,6.00
2023-04-04T22:09:01.819Z,6.63
2023-04-04T22:11:30.271Z,5.68
2023-04-04T22:14:04.848Z,6.35
2023-04-04T22:16:37.028Z,6.35
2023-04-04T22:19:05.454Z,6.00
2023-04-04T22:21:36.616Z,6.32
2023-04-04T22:24:06.220Z,5.82
2023-04-04T22:26:34.711Z,5.65
2023-04-04T22:29:05.495Z,5.75
2023-04-04T22:31:35.195Z,6.00
2023-04-04T22:34:04.043Z,5.78
2023-04-04T22:36:34.394Z,5.72
2023-04-04T22:39:03.921Z,5.22
2023-04-04T22:41:32.039Z,5.07
2023-04-04T22:44:00.148Z,5.22
2023-04-04T22:46:29.380Z,5.32
2023-04-04T22:49:05.241Z,6.20
2023-04-04T22:51:45.769Z,6.25
2023-04-04T22:54:16.894Z,5.32
2023-04-04T22:56:45.508Z,6.20
2023-04-04T22:59:16.654Z,5.40
2023-04-04T23:01:44.874Z,5.65
2023-04-04T23:04:13.057Z,6.32
2023-04-04T23:06:41.262Z,5.45
2023-04-04T23:09:09.499Z,5.60
2023-04-04T23:11:39.979Z,5.05
2023-04-04T23:14:09.820Z,5.43
2023-04-04T23:16:38.400Z,6.32
2023-04-04T23:19:06.681Z,6.20
2023-04-04T23:21:34.859Z,5.28
2023-04-04T23:24:03.206Z,6.13
2023-04-04T23:26:32.506Z,5.75
2023-04-04T23:29:03.097Z,6.70
2023-04-04T23:31:31.696Z,6.95
2023-04-04T23:34:00.033Z,7.40
2023-04-04T23:36:28.330Z,7.38
2023-04-04T23:38:57.899Z,6.93
2023-04-04T23:41:26.366Z,5.90
2023-04-04T23:43:54.603Z,5.80
2023-04-04T23:46:24.191Z,6.60
2023-04-04T23:48:52.436Z,6.53
2023-04-04T23:51:21.445Z,6.20
2023-04-04T23:53:49.592Z,6.65
2023-04-04T23:56:17.822Z,6.72
2023-04-04T23:58:46.176Z,7.30
